sensor_id;sensor_type;location;lat;lon;timestamp;pressure;altitude;pressure_sealevel;temperature;humidity
11174;BME280;5643;50.856;12.088;2024-03-02T00:01:44;98576.91;;;3.44;100.00
11174;BME280;5643;50.856;12.088;2024-03-02T00:04:11;98576.13;;;3.43;100.00
11174;BME280;5643;50.856;12.088;2024-03-02T00:06:39;98572.97;;;3.53;100.00
11174;BME280;5643;50.856;12.088;2024-03-02T00:09:09;98582.06;;;3.44;100.00
11174;BME280;5643;50.856;12.088;2024-03-02T00:11:38;98572.88;;;3.40;100.00
11174;BME280;5643;50.856;12.088;2024-03-02T00:14:08;98574.34;;;3.44;100.00
11174;BME280;5643;50.856;12.088;2024-03-02T00:16:35;98562.91;;;3.48;100.00
11174;BME280;5643;50.856;12.088;2024-03-02T00:19:03;98572.50;;;3.46;100.00
11174;BME280;5643;50.856;12.088;2024-03-02T00:21:31;98570.75;;;3.47;100.00
11174;BME280;5643;50.856;12.088;2024-03-02T00:23:59;98571.97;;;3.41;100.00
11174;BME280;5643;50.856;12.088;2024-03-02T00:26:33;98577.47;;;3.49;100.00
11174;BME280;5643;50.856;12.088;2024-03-02T00:29:00;98567.53;;;3.43;100.00
11174;BME280;5643;50.856;12.088;2024-03-02T00:31:29;98569.16;;;3.44;100.00
11174;BME280;5643;50.856;12.088;2024-03-02T00:33:59;98559.88;;;3.41;100.00
11174;BME280;5643;50.856;12.088;2024-03-02T00:36:30;98557.75;;;3.34;100.00
11174;BME280;5643;50.856;12.088;2024-03-02T00:38:57;98557.97;;;3.31;100.00
11174;BME280;5643;50.856;12.088;2024-03-02T00:41:27;98552.16;;;3.27;100.00
11174;BME280;5643;50.856;12.088;2024-03-02T00:43:59;98547.38;;;3.21;100.00
11174;BME280;5643;50.856;12.088;2024-03-02T00:46:31;98553.38;;;3.22;100.00
11174;BME280;5643;50.856;12.088;2024-03-02T00:49:00;98552.63;;;3.20;100.00
11174;BME280;5643;50.856;12.088;2024-03-02T00:51:32;98556.66;;;3.24;100.00
11174;BME280;5643;50.856;12.088;2024-03-02T00:54:00;98558.81;;;3.17;100.00
11174;BME280;5643;50.856;12.088;2024-03-02T00:56:30;98564.25;;;3.13;100.00
11174;BME280;5643;50.856;12.088;2024-03-02T00:58:58;98557.03;;;3.04;100.00
11174;BME280;5643;50.856;12.088;2024-03-02T01:01:26;98564.22;;;2.98;100.00
11174;BME280;5643;50.856;12.088;2024-03-02T01:03:55;98559.34;;;2.94;100.00
11174;BME280;5643;50.856;12.088;2024-03-02T01:06:24;98557.69;;;2.79;100.00
11174;BME280;5643;50.856;12.088;2024-03-02T01:08:51;98563.31;;;2.71;100.00
11174;BME280;5643;50.856;12.088;2024-03-02T01:11:19;98565.59;;;2.62;100.00
11174;BME280;5643;50.856;12.088;2024-03-02T01:13:48;98567.22;;;2.63;100.00
11174;BME280;5643;50.856;12.088;2024-03-02T01:16:15;98562.63;;;2.53;100.00
11174;BME280;5643;50.856;12.088;2024-03-02T01:18:43;98567.84;;;2.52;100.00
11174;BME280;5643;50.856;12.088;2024-03-02T01:21:12;98568.59;;;2.54;100.00
11174;BME280;5643;50.856;12.088;2024-03-02T01:23:40;98570.59;;;2.35;100.00
11174;BME280;5643;50.856;12.088;2024-03-02T01:26:10;98569.75;;;2.34;100.00
11174;BME280;5643;50.856;12.088;2024-03-02T01:28:37;98564.16;;;2.42;100.00
11174;BME280;5643;50.856;12.088;2024-03-02T01:31:05;98575.63;;;2.36;100.00
11174;BME280;5643;50.856;12.088;2024-03-02T01:33:32;98572.91;;;2.39;100.00
11174;BME280;5643;50.856;12.088;2024-03-02T01:35:59;98574.25;;;2.31;100.00
11174;BME280;5643;50.856;12.088;2024-03-02T01:38:28;98579.00;;;2.23;100.00
11174;BME280;5643;50.856;12.088;2024-03-02T01:40:56;98579.09;;;2.21;100.00
11174;BME280;5643;50.856;12.088;2024-03-02T01:43:24;98587.91;;;2.17;100.00
11174;BME280;5643;50.856;12.088;2024-03-02T01:45:53;98584.59;;;2.15;100.00
11174;BME280;5643;50.856;12.088;2024-03-02T01:48:19;98582.75;;;2.17;100.00
11174;BME280;5643;50.856;12.088;2024-03-02T01:50:47;98578.31;;;2.05;100.00
11174;BME280;5643;50.856;12.088;2024-03-02T01:53:14;98581.34;;;2.11;100.00
11174;BME280;5643;50.856;12.088;2024-03-02T01:55:43;98577.81;;;1.98;100.00
11174;BME280;5643;50.856;12.088;2024-03-02T01:58:11;98577.63;;;2.01;100.00
11174;BME280;5643;50.856;12.088;2024-03-02T02:00:38;98579.28;;;2.02;100.00
11174;BME280;5643;50.856;12.088;2024-03-02T02:03:06;98580.13;;;2.03;100.00
11174;BME280;5643;50.856;12.088;2024-03-02T02:05:34;98573.88;;;2.07;100.00
11174;BME280;5643;50.856;12.088;2024-03-02T02:08:02;98564.81;;;2.15;100.00
11174;BME280;5643;50.856;12.088;2024-03-02T02:10:29;98564.97;;;2.12;100.00
11174;BME280;5643;50.856;12.088;2024-03-02T02:12:59;98564.13;;;2.28;100.00
11174;BME280;5643;50.856;12.088;2024-03-02T02:15:27;98566.34;;;2.34;100.00
11174;BME280;5643;50.856;12.088;2024-03-02T02:17:55;98561.94;;;2.36;100.00
11174;BME280;5643;50.856;12.088;2024-03-02T02:20:23;98564.91;;;2.44;100.00
11174;BME280;5643;50.856;12.088;2024-03-02T02:22:57;98561.88;;;2.51;100.00
11174;BME280;5643;50.856;12.088;2024-03-02T02:25:24;98552.72;;;2.62;100.00
11174;BME280;5643;50.856;12.088;2024-03-02T02:27:52;98554.22;;;2.36;100.00
11174;BME280;5643;50.856;12.088;2024-03-02T02:30:21;98567.09;;;2.36;100.00
11174;BME280;5643;50.856;12.088;2024-03-02T02:32:49;98563.63;;;2.51;100.00
11174;BME280;5643;50.856;12.088;2024-03-02T02:35:17;98561.50;;;2.57;100.00
11174;BME280;5643;50.856;12.088;2024-03-02T02:37:45;98548.19;;;2.65;100.00
11174;BME280;5643;50.856;12.088;2024-03-02T02:40:15;98557.38;;;2.55;100.00
11174;BME280;5643;50.856;12.088;2024-03-02T02:42:45;98562.69;;;2.52;100.00
11174;BME280;5643;50.856;12.088;2024-03-02T02:45:15;98563.22;;;2.43;100.00
11174;BME280;5643;50.856;12.088;2024-03-02T02:47:42;98552.59;;;2.63;100.00
11174;BME280;5643;50.856;12.088;2024-03-02T02:50:11;98553.97;;;2.54;100.00
11174;BME280;5643;50.856;12.088;2024-03-02T02:52:40;98554.25;;;2.50;100.00
11174;BME280;5643;50.856;12.088;2024-03-02T02:55:09;98551.41;;;2.54;100.00
11174;BME280;5643;50.856;12.088;2024-03-02T02:57:39;98557.72;;;2.49;100.00
11174;BME280;5643;50.856;12.088;2024-03-02T03:00:09;98550.28;;;2.44;100.00
11174;BME280;5643;50.856;12.088;2024-03-02T03:02:40;98545.94;;;2.45;100.00
11174;BME280;5643;50.856;12.088;2024-03-02T03:05:09;98549.44;;;2.44;100.00
11174;BME280;5643;50.856;12.088;2024-03-02T03:07:37;98553.84;;;2.42;100.00
11174;BME280;5643;50.856;12.088;2024-03-02T03:10:06;98554.44;;;2.31;100.00
11174;BME280;5643;50.856;12.088;2024-03-02T03:12:35;98558.59;;;2.20;100.00
11174;BME280;5643;50.856;12.088;2024-03-02T03:15:05;98565.22;;;2.24;100.00
11174;BME280;5643;50.856;12.088;2024-03-02T03:17:34;98567.09;;;2.36;100.00
11174;BME280;5643;50.856;12.088;2024-03-02T03:20:03;98567.09;;;2.36;100.00
11174;BME280;5643;50.856;12.088;2024-03-02T03:22:31;98560.06;;;2.24;100.00
11174;BME280;5643;50.856;12.088;2024-03-02T03:24:59;98568.53;;;2.26;100.00
11174;BME280;5643;50.856;12.088;2024-03-02T03:27:26;98571.28;;;2.23;100.00
11174;BME280;5643;50.856;12.088;2024-03-02T03:29:54;98575.03;;;2.47;100.00
11174;BME280;5643;50.856;12.088;2024-03-02T03:32:23;98574.44;;;2.42;100.00
11174;BME280;5643;50.856;12.088;2024-03-02T03:34:51;98570.97;;;2.43;100.00
11174;BME280;5643;50.856;12.088;2024-03-02T03:37:18;98577.28;;;2.37;100.00
11174;BME280;5643;50.856;12.088;2024-03-02T03:39:46;98582.97;;;2.28;100.00
11174;BME280;5643;50.856;12.088;2024-03-02T03:42:13;98578.66;;;2.29;100.00
11174;BME280;5643;50.856;12.088;2024-03-02T03:44:42;98585.28;;;2.33;100.00
11174;BME280;5643;50.856;12.088;2024-03-02T03:47:09;98588.16;;;2.42;100.00
11174;BME280;5643;50.856;12.088;2024-03-02T03:49:38;98589.41;;;2.51;100.00
11174;BME280;5643;50.856;12.088;2024-03-02T03:52:06;98585.47;;;2.60;100.00
11174;BME280;5643;50.856;12.088;2024-03-02T03:54:33;98587.22;;;2.73;100.00
11174;BME280;5643;50.856;12.088;2024-03-02T03:57:03;98590.09;;;2.69;100.00
11174;BME280;5643;50.856;12.088;2024-03-02T03:59:30;98593.06;;;2.77;100.00
11174;BME280;5643;50.856;12.088;2024-03-02T04:02:00;98594.53;;;2.81;100.00
11174;BME280;5643;50.856;12.088;2024-03-02T04:04:28;98595.53;;;2.92;100.00
11174;BME280;5643;50.856;12.088;2024-03-02T04:06:57;98590.41;;;3.07;100.00
11174;BME280;5643;50.856;12.088;2024-03-02T04:09:24;98599.25;;;3.03;100.00
11174;BME280;5643;50.856;12.088;2024-03-02T04:11:53;98598.31;;;3.04;100.00
11174;BME280;5643;50.856;12.088;2024-03-02T04:14:20;98602.41;;;3.08;100.00
11174;BME280;5643;50.856;12.088;2024-03-02T04:16:48;98609.31;;;3.07;100.00
11174;BME280;5643;50.856;12.088;2024-03-02T04:19:15;98602.19;;;3.11;100.00
11174;BME280;5643;50.856;12.088;2024-03-02T04:21:43;98609.03;;;3.12;100.00
11174;BME280;5643;50.856;12.088;2024-03-02T04:24:12;98611.59;;;3.12;100.00
11174;BME280;5643;50.856;12.088;2024-03-02T04:26:39;98611.59;;;3.12;100.00
11174;BME280;5643;50.856;12.088;2024-03-02T04:29:06;98620.44;;;3.08;100.00
11174;BME280;5643;50.856;12.088;2024-03-02T04:31:34;98607.44;;;3.09;100.00
11174;BME280;5643;50.856;12.088;2024-03-02T04:34:01;98605.13;;;3.05;100.00
11174;BME280;5643;50.856;12.088;2024-03-02T04:36:28;98608.19;;;2.97;100.00
11174;BME280;5643;50.856;12.088;2024-03-02T04:38:56;98612.16;;;3.03;100.00
11174;BME280;5643;50.856;12.088;2024-03-02T04:41:25;98611.22;;;3.04;100.00
11174;BME280;5643;50.856;12.088;2024-03-02T04:43:53;98608.19;;;2.97;100.00
11174;BME280;5643;50.856;12.088;2024-03-02T04:46:20;98610.28;;;2.90;100.00
11174;BME280;5643;50.856;12.088;2024-03-02T04:48:48;98611.75;;;2.80;100.00
11174;BME280;5643;50.856;12.088;2024-03-02T04:51:21;98607.84;;;2.73;100.00
11174;BME280;5643;50.856;12.088;2024-03-02T04:53:48;98603.59;;;2.72;100.00
11174;BME280;5643;50.856;12.088;2024-03-02T04:56:16;98604.56;;;2.71;100.00
11174;BME280;5643;50.856;12.088;2024-03-02T04:59:10;98604.56;;;2.71;100.00
11174;BME280;5643;50.856;12.088;2024-03-02T05:01:38;98606.84;;;2.62;100.00
11174;BME280;5643;50.856;12.088;2024-03-02T05:04:07;98606.47;;;2.38;100.00
11174;BME280;5643;50.856;12.088;2024-03-02T05:06:38;98605.44;;;2.56;100.00
11174;BME280;5643;50.856;12.088;2024-03-02T05:09:06;98608.81;;;2.56;100.00
11174;BME280;5643;50.856;12.088;2024-03-02T05:11:34;98608.38;;;2.50;100.00
11174;BME280;5643;50.856;12.088;2024-03-02T05:14:20;98612.41;;;2.54;100.00
11174;BME280;5643;50.856;12.088;2024-03-02T05:16:48;98617.19;;;2.46;100.00
11174;BME280;5643;50.856;12.088;2024-03-02T05:19:15;98616.13;;;2.34;100.00
11174;BME280;5643;50.856;12.088;2024-03-02T05:21:42;98619.28;;;2.39;100.00
11174;BME280;5643;50.856;12.088;2024-03-02T05:24:10;98611.63;;;2.38;100.00
11174;BME280;5643;50.856;12.088;2024-03-02T05:26:37;98611.94;;;2.47;100.00
11174;BME280;5643;50.856;12.088;2024-03-02T05:29:04;98616.06;;;2.66;100.00
11174;BME280;5643;50.856;12.088;2024-03-02T05:31:33;98620.72;;;2.59;100.00
11174;BME280;5643;50.856;12.088;2024-03-02T05:34:01;98622.94;;;2.65;100.00
11174;BME280;5643;50.856;12.088;2024-03-02T05:36:29;98618.72;;;2.64;100.00
11174;BME280;5643;50.856;12.088;2024-03-02T05:38:56;98627.75;;;2.71;100.00
11174;BME280;5643;50.856;12.088;2024-03-02T05:41:24;98626.81;;;2.72;100.00
11174;BME280;5643;50.856;12.088;2024-03-02T05:43:51;98633.88;;;2.98;100.00
11174;BME280;5643;50.856;12.088;2024-03-02T05:46:19;98635.53;;;2.99;100.00
11174;BME280;5643;50.856;12.088;2024-03-02T05:48:49;98634.53;;;3.02;100.00
11174;BME280;5643;50.856;12.088;2024-03-02T05:51:16;98642.28;;;3.02;100.00
11174;BME280;5643;50.856;12.088;2024-03-02T05:53:44;98642.56;;;3.12;100.00
11174;BME280;5643;50.856;12.088;2024-03-02T05:56:11;98643.47;;;3.25;100.00
11174;BME280;5643;50.856;12.088;2024-03-02T05:58:40;98648.63;;;3.39;100.00
11174;BME280;5643;50.856;12.088;2024-03-02T06:01:19;98646.81;;;3.41;100.00
11174;BME280;5643;50.856;12.088;2024-03-02T06:03:49;98646.25;;;3.50;100.00
11174;BME280;5643;50.856;12.088;2024-03-02T06:06:17;98648.09;;;3.48;100.00
11174;BME280;5643;50.856;12.088;2024-03-02T06:08:44;98651.59;;;3.47;100.00
11174;BME280;5643;50.856;12.088;2024-03-02T06:11:12;98650.69;;;3.62;100.00
11174;BME280;5643;50.856;12.088;2024-03-02T06:13:39;98657.09;;;3.69;100.00
11174;BME280;5643;50.856;12.088;2024-03-02T06:16:07;98653.16;;;3.64;100.00
11174;BME280;5643;50.856;12.088;2024-03-02T06:18:35;98655.28;;;3.71;100.00
11174;BME280;5643;50.856;12.088;2024-03-02T06:21:04;98653.69;;;3.83;100.00
11174;BME280;5643;50.856;12.088;2024-03-02T06:23:32;98658.28;;;3.92;100.00
11174;BME280;5643;50.856;12.088;2024-03-02T06:25:59;98650.16;;;3.98;100.00
11174;BME280;5643;50.856;12.088;2024-03-02T06:28:26;98659.91;;;4.07;100.00
11174;BME280;5643;50.856;12.088;2024-03-02T06:30:54;98657.72;;;4.01;100.00
11174;BME280;5643;50.856;12.088;2024-03-02T06:33:21;98655.78;;;4.05;100.00
11174;BME280;5643;50.856;12.088;2024-03-02T06:35:49;98660.19;;;4.03;100.00
11174;BME280;5643;50.856;12.088;2024-03-02T06:38:18;98662.41;;;4.09;100.00
11174;BME280;5643;50.856;12.088;2024-03-02T06:40:45;98657.41;;;4.20;100.00
11174;BME280;5643;50.856;12.088;2024-03-02T06:43:13;98666.31;;;4.28;100.00
11174;BME280;5643;50.856;12.088;2024-03-02T06:45:40;98662.59;;;4.33;100.00
11174;BME280;5643;50.856;12.088;2024-03-02T06:48:08;98659.41;;;4.42;100.00
11174;BME280;5643;50.856;12.088;2024-03-02T06:50:36;98666.94;;;4.32;100.00
11174;BME280;5643;50.856;12.088;2024-03-02T06:53:03;98668.94;;;4.41;100.00
11174;BME280;5643;50.856;12.088;2024-03-02T06:55:32;98660.38;;;4.41;100.00
11174;BME280;5643;50.856;12.088;2024-03-02T06:57:59;98667.19;;;4.42;100.00
11174;BME280;5643;50.856;12.088;2024-03-02T07:00:27;98667.84;;;4.45;100.00
11174;BME280;5643;50.856;12.088;2024-03-02T07:02:55;98670.75;;;4.53;100.00
11174;BME280;5643;50.856;12.088;2024-03-02T07:05:23;98669.81;;;4.54;100.00
11174;BME280;5643;50.856;12.088;2024-03-02T07:07:50;98670.78;;;4.66;100.00
11174;BME280;5643;50.856;12.088;2024-03-02T07:10:18;98674.22;;;4.66;100.00
11174;BME280;5643;50.856;12.088;2024-03-02T07:12:47;98674.38;;;4.63;100.00
11174;BME280;5643;50.856;12.088;2024-03-02T07:15:14;98672.34;;;4.68;100.00
11174;BME280;5643;50.856;12.088;2024-03-02T07:18:10;98665.31;;;4.70;100.00
11174;BME280;5643;50.856;12.088;2024-03-02T07:20:38;98658.38;;;4.71;100.00
11174;BME280;5643;50.856;12.088;2024-03-02T07:23:06;98665.16;;;4.86;100.00
11174;BME280;5643;50.856;12.088;2024-03-02T07:25:33;98663.09;;;4.91;100.00
11174;BME280;5643;50.856;12.088;2024-03-02T07:28:02;98660.28;;;4.94;100.00
11174;BME280;5643;50.856;12.088;2024-03-02T07:30:30;98658.84;;;5.03;100.00
11174;BME280;5643;50.856;12.088;2024-03-02T07:32:57;98657.28;;;5.13;100.00
11174;BME280;5643;50.856;12.088;2024-03-02T07:35:25;98662.16;;;5.30;100.00
11174;BME280;5643;50.856;12.088;2024-03-02T07:37:53;98663.84;;;5.31;100.00
11174;BME280;5643;50.856;12.088;2024-03-02T07:40:21;98668.19;;;5.43;100.00
11174;BME280;5643;50.856;12.088;2024-03-02T07:42:49;98671.28;;;5.48;100.00
11174;BME280;5643;50.856;12.088;2024-03-02T07:45:18;98669.84;;;5.57;100.00
11174;BME280;5643;50.856;12.088;2024-03-02T07:47:46;98672.00;;;5.63;100.00
11174;BME280;5643;50.856;12.088;2024-03-02T07:50:14;98675.63;;;5.73;100.00
11174;BME280;5643;50.856;12.088;2024-03-02T07:52:41;98677.66;;;5.81;100.00
11174;BME280;5643;50.856;12.088;2024-03-02T07:55:09;98671.00;;;6.02;100.00
11174;BME280;5643;50.856;12.088;2024-03-02T07:57:36;98678.59;;;6.05;100.00
11174;BME280;5643;50.856;12.088;2024-03-02T08:00:04;98675.22;;;6.16;100.00
11174;BME280;5643;50.856;12.088;2024-03-02T08:02:34;98671.56;;;6.31;100.00
11174;BME280;5643;50.856;12.088;2024-03-02T08:05:01;98672.16;;;6.34;100.00
11174;BME280;5643;50.856;12.088;2024-03-02T08:07:29;98674.09;;;6.43;100.00
11174;BME280;5643;50.856;12.088;2024-03-02T08:09:56;98671.59;;;6.42;100.00
11174;BME280;5643;50.856;12.088;2024-03-02T08:12:24;98678.53;;;6.41;100.00
11174;BME280;5643;50.856;12.088;2024-03-02T08:14:51;98675.94;;;6.41;100.00
11174;BME280;5643;50.856;12.088;2024-03-02T08:17:19;98683.09;;;6.51;100.00
11174;BME280;5643;50.856;12.088;2024-03-02T08:19:49;98678.91;;;6.61;100.00
11174;BME280;5643;50.856;12.088;2024-03-02T08:22:16;98674.47;;;6.74;100.00
11174;BME280;5643;50.856;12.088;2024-03-02T08:24:44;98672.38;;;6.90;100.00
11174;BME280;5643;50.856;12.088;2024-03-02T08:27:12;98684.94;;;6.96;100.00
11174;BME280;5643;50.856;12.088;2024-03-02T08:29:40;98691.16;;;6.94;100.00
11174;BME280;5643;50.856;12.088;2024-03-02T08:32:08;98690.13;;;6.96;100.00
11174;BME280;5643;50.856;12.088;2024-03-02T08:34:36;98686.50;;;7.10;100.00
11174;BME280;5643;50.856;12.088;2024-03-02T08:37:04;98687.31;;;7.10;100.00
11174;BME280;5643;50.856;12.088;2024-03-02T08:39:32;98688.53;;;7.17;100.00
11174;BME280;5643;50.856;12.088;2024-03-02T08:41:59;98688.63;;;7.16;100.00
11174;BME280;5643;50.856;12.088;2024-03-02T08:44:27;98696.31;;;7.28;100.00
11174;BME280;5643;50.856;12.088;2024-03-02T08:46:54;98679.09;;;7.39;100.00
11174;BME280;5643;50.856;12.088;2024-03-02T08:49:22;98683.94;;;7.54;100.00
11174;BME280;5643;50.856;12.088;2024-03-02T08:51:49;98676.78;;;7.69;100.00
11174;BME280;5643;50.856;12.088;2024-03-02T08:54:21;98678.88;;;7.75;100.00
11174;BME280;5643;50.856;12.088;2024-03-02T08:56:50;98677.00;;;7.99;100.00
11174;BME280;5643;50.856;12.088;2024-03-02T08:59:17;98675.19;;;8.33;100.00
11174;BME280;5643;50.856;12.088;2024-03-02T09:01:45;98677.19;;;8.41;100.00
11174;BME280;5643;50.856;12.088;2024-03-02T09:04:13;98681.00;;;8.69;100.00
11174;BME280;5643;50.856;12.088;2024-03-02T09:06:40;98682.34;;;8.84;100.00
11174;BME280;5643;50.856;12.088;2024-03-02T09:09:08;98689.78;;;9.09;100.00
11174;BME280;5643;50.856;12.088;2024-03-02T09:11:36;98684.78;;;9.38;100.00
11174;BME280;5643;50.856;12.088;2024-03-02T09:14:04;98683.00;;;9.38;100.00
11174;BME280;5643;50.856;12.088;2024-03-02T09:16:31;98688.50;;;9.45;100.00
11174;BME280;5643;50.856;12.088;2024-03-02T09:18:59;98679.41;;;9.60;100.00
11174;BME280;5643;50.856;12.088;2024-03-02T09:21:26;98685.47;;;9.70;100.00
11174;BME280;5643;50.856;12.088;2024-03-02T09:23:56;98682.78;;;9.81;100.00
11174;BME280;5643;50.856;12.088;2024-03-02T09:26:24;98682.91;;;9.80;100.00
11174;BME280;5643;50.856;12.088;2024-03-02T09:28:53;98687.66;;;9.65;100.00
11174;BME280;5643;50.856;12.088;2024-03-02T09:31:22;98681.56;;;9.85;100.00
11174;BME280;5643;50.856;12.088;2024-03-02T09:33:51;98686.13;;;9.93;100.00
11174;BME280;5643;50.856;12.088;2024-03-02T09:36:19;98694.09;;;9.92;100.00
11174;BME280;5643;50.856;12.088;2024-03-02T09:38:48;98685.38;;;10.12;100.00
11174;BME280;5643;50.856;12.088;2024-03-02T09:41:15;98679.06;;;10.14;100.00
11174;BME280;5643;50.856;12.088;2024-03-02T09:43:43;98685.72;;;10.28;100.00
11174;BME280;5643;50.856;12.088;2024-03-02T09:46:13;98691.47;;;10.32;100.00
11174;BME280;5643;50.856;12.088;2024-03-02T09:48:40;98681.50;;;10.46;100.00
11174;BME280;5643;50.856;12.088;2024-03-02T09:51:08;98683.97;;;10.57;100.00
11174;BME280;5643;50.856;12.088;2024-03-02T09:53:36;98683.19;;;10.76;100.00
11174;BME280;5643;50.856;12.088;2024-03-02T09:56:04;98678.06;;;10.94;100.00
11174;BME280;5643;50.856;12.088;2024-03-02T09:58:32;98685.50;;;10.89;100.00
11174;BME280;5643;50.856;12.088;2024-03-02T10:00:59;98689.09;;;10.97;100.00
11174;BME280;5643;50.856;12.088;2024-03-02T10:03:44;98680.53;;;11.05;100.00
11174;BME280;5643;50.856;12.088;2024-03-02T10:06:21;98677.50;;;11.19;100.00
11174;BME280;5643;50.856;12.088;2024-03-02T10:08:49;98680.66;;;11.32;100.00
11174;BME280;5643;50.856;12.088;2024-03-02T10:11:28;98680.22;;;11.37;100.00
11174;BME280;5643;50.856;12.088;2024-03-02T10:14:06;98680.19;;;11.46;100.00
11174;BME280;5643;50.856;12.088;2024-03-02T10:16:40;98682.72;;;11.38;100.00
11174;BME280;5643;50.856;12.088;2024-03-02T10:19:18;98678.38;;;11.57;100.00
11174;BME280;5643;50.856;12.088;2024-03-02T10:21:46;98670.06;;;11.71;100.00
11174;BME280;5643;50.856;12.088;2024-03-02T10:24:15;98675.84;;;11.84;100.00
11174;BME280;5643;50.856;12.088;2024-03-02T10:26:43;98672.56;;;12.72;100.00
11174;BME280;5643;50.856;12.088;2024-03-02T10:29:13;98660.59;;;13.90;100.00
11174;BME280;5643;50.856;12.088;2024-03-02T10:31:45;98656.97;;;13.06;100.00
11174;BME280;5643;50.856;12.088;2024-03-02T10:34:13;98652.16;;;13.45;100.00
11174;BME280;5643;50.856;12.088;2024-03-02T10:36:46;98652.13;;;13.62;100.00
11174;BME280;5643;50.856;12.088;2024-03-02T10:39:14;98636.53;;;13.95;100.00
11174;BME280;5643;50.856;12.088;2024-03-02T10:41:42;98650.13;;;13.31;100.00
11174;BME280;5643;50.856;12.088;2024-03-02T10:44:11;98636.00;;;13.91;100.00
11174;BME280;5643;50.856;12.088;2024-03-02T10:46:43;98638.31;;;13.60;100.00
11174;BME280;5643;50.856;12.088;2024-03-02T10:49:12;98631.28;;;13.61;100.00
11174;BME280;5643;50.856;12.088;2024-03-02T10:51:40;98626.50;;;13.98;100.00
11174;BME280;5643;50.856;12.088;2024-03-02T10:54:09;98620.00;;;14.19;100.00
11174;BME280;5643;50.856;12.088;2024-03-02T10:56:39;98622.69;;;14.35;100.00
11174;BME280;5643;50.856;12.088;2024-03-02T10:59:17;98630.03;;;13.73;100.00
11174;BME280;5643;50.856;12.088;2024-03-02T11:01:50;98627.69;;;13.36;100.00
11174;BME280;5643;50.856;12.088;2024-03-02T11:04:18;98619.03;;;14.28;100.00
11174;BME280;5643;50.856;12.088;2024-03-02T11:06:48;98617.81;;;14.56;100.00
11174;BME280;5643;50.856;12.088;2024-03-02T11:09:20;98610.09;;;14.79;100.00
11174;BME280;5643;50.856;12.088;2024-03-02T11:11:54;98604.84;;;14.46;100.00
11174;BME280;5643;50.856;12.088;2024-03-02T11:14:24;98601.06;;;15.06;100.00
11174;BME280;5643;50.856;12.088;2024-03-02T11:16:52;98599.88;;;15.16;100.00
11174;BME280;5643;50.856;12.088;2024-03-02T11:19:22;98591.94;;;15.41;100.00
11174;BME280;5643;50.856;12.088;2024-03-02T11:21:50;98597.78;;;14.96;100.00
11174;BME280;5643;50.856;12.088;2024-03-02T11:24:32;98590.84;;;15.11;100.00
11174;BME280;5643;50.856;12.088;2024-03-02T11:27:01;98586.50;;;15.42;100.00
11174;BME280;5643;50.856;12.088;2024-03-02T11:29:46;98582.22;;;15.57;100.00
11174;BME280;5643;50.856;12.088;2024-03-02T11:32:16;98582.22;;;15.41;100.00
11174;BME280;5643;50.856;12.088;2024-03-02T11:34:46;98584.97;;;14.68;100.00
11174;BME280;5643;50.856;12.088;2024-03-02T11:37:19;98584.78;;;14.78;100.00
11174;BME280;5643;50.856;12.088;2024-03-02T11:39:50;98578.72;;;14.77;100.00
11174;BME280;5643;50.856;12.088;2024-03-02T11:42:20;98588.97;;;15.52;100.00
11174;BME280;5643;50.856;12.088;2024-03-02T11:44:49;98571.78;;;16.03;100.00
11174;BME280;5643;50.856;12.088;2024-03-02T11:47:17;98583.22;;;16.18;100.00
11174;BME280;5643;50.856;12.088;2024-03-02T11:49:45;98573.31;;;15.97;100.00
11174;BME280;5643;50.856;12.088;2024-03-02T11:52:15;98565.06;;;16.00;100.00
11174;BME280;5643;50.856;12.088;2024-03-02T11:54:45;98566.97;;;15.84;100.00
11174;BME280;5643;50.856;12.088;2024-03-02T11:57:19;98561.19;;;15.88;100.00
11174;BME280;5643;50.856;12.088;2024-03-02T11:59:48;98558.56;;;15.88;100.00
11174;BME280;5643;50.856;12.088;2024-03-02T12:02:17;98550.78;;;16.17;100.00
11174;BME280;5643;50.856;12.088;2024-03-02T12:04:48;98550.63;;;16.19;100.00
11174;BME280;5643;50.856;12.088;2024-03-02T12:07:19;98549.34;;;16.15;100.00
11174;BME280;5643;50.856;12.088;2024-03-02T12:09:48;98551.88;;;16.31;100.00
11174;BME280;5643;50.856;12.088;2024-03-02T12:12:17;98549.22;;;16.08;100.00
11174;BME280;5643;50.856;12.088;2024-03-02T12:14:52;98551.41;;;16.50;100.00
11174;BME280;5643;50.856;12.088;2024-03-02T12:17:21;98546.47;;;16.25;100.00
11174;BME280;5643;50.856;12.088;2024-03-02T12:19:52;98546.72;;;16.60;100.00
11174;BME280;5643;50.856;12.088;2024-03-02T12:22:21;98550.97;;;16.84;100.00
11174;BME280;5643;50.856;12.088;2024-03-02T12:24:49;98549.22;;;16.54;100.00
11174;BME280;5643;50.856;12.088;2024-03-02T12:27:18;98552.16;;;16.59;100.00
11174;BME280;5643;50.856;12.088;2024-03-02T12:29:47;98553.63;;;16.99;100.00
11174;BME280;5643;50.856;12.088;2024-03-02T12:32:16;98548.72;;;17.11;100.00
11174;BME280;5643;50.856;12.088;2024-03-02T12:34:47;98558.16;;;16.90;100.00
11174;BME280;5643;50.856;12.088;2024-03-02T12:37:14;98545.09;;;16.97;100.00
11174;BME280;5643;50.856;12.088;2024-03-02T12:39:44;98532.81;;;17.48;100.00
11174;BME280;5643;50.856;12.088;2024-03-02T12:42:12;98541.03;;;16.49;100.00
11174;BME280;5643;50.856;12.088;2024-03-02T12:44:41;98531.84;;;15.91;100.00
11174;BME280;5643;50.856;12.088;2024-03-02T12:47:09;98524.97;;;17.11;100.00
11174;BME280;5643;50.856;12.088;2024-03-02T12:49:39;98520.63;;;17.62;100.00
11174;BME280;5643;50.856;12.088;2024-03-02T12:52:07;98522.88;;;17.06;100.00
11174;BME280;5643;50.856;12.088;2024-03-02T12:54:35;98512.78;;;18.04;100.00
11174;BME280;5643;50.856;12.088;2024-03-02T12:57:02;98501.75;;;18.01;100.00
11174;BME280;5643;50.856;12.088;2024-03-02T12:59:32;98498.38;;;17.71;100.00
11174;BME280;5643;50.856;12.088;2024-03-02T13:02:01;98503.13;;;17.97;100.00
11174;BME280;5643;50.856;12.088;2024-03-02T13:04:28;98515.78;;;18.44;100.00
11174;BME280;5643;50.856;12.088;2024-03-02T13:06:57;98507.28;;;18.48;100.00